Time;durP1;ratioP1;P1;durP2;ratioP2;P2;SDS_P1;SDS_P2;PMS_P1;PMS_P2;Temp;Humidity;BMP_temperature;BMP_pressure;BME280_temperature;BME280_humidity;BME280_pressure;Samples;Min_cycle;Max_cycle;Signal;HPM_P1;HPM_P2
2023/03/27 00:00:57;;;;;;;0.40;0.40;;;0.70;4.90;;;;;;5052606;28;20068;-90
2023/03/27 00:03:25;;;;;;;0.65;0.43;;;0.70;99.90;;;;;;5053550;28;20048;-90
2023/03/27 00:06:06;;;;;;;0.10;0.10;;;1.40;99.90;;;;;;5051394;28;20056;-90
2023/03/27 00:08:32;;;;;;;0.00;0.00;;;0.80;99.90;;;;;;5053019;28;20041;-89
2023/03/27 00:10:59;;;;;;;0.00;0.00;;;0.90;99.90;;;;;;5053365;28;20049;-89
2023/03/27 00:13:25;;;;;;;0.00;0.00;;;1.30;99.90;;;;;;5035799;28;20406;-89
2023/03/27 00:15:53;;;;;;;0.00;0.00;;;1.40;99.90;;;;;;5053517;28;20060;-89
2023/03/27 00:18:20;;;;;;;0.00;0.00;;;1.60;99.90;;;;;;5051682;28;20487;-89
2023/03/27 00:20:46;;;;;;;0.10;0.10;;;1.50;99.90;;;;;;5051503;28;20045;-89
2023/03/27 00:23:12;;;;;;;0.00;0.00;;;1.50;99.90;;;;;;5052961;28;20047;-89
2023/03/27 00:25:39;;;;;;;0.38;0.38;;;1.50;1.00;;;;;;5053297;28;20562;-88
2023/03/27 00:28:07;;;;;;;0.00;0.00;;;1.50;1.00;;;;;;5051074;28;20056;-90
2023/03/27 00:30:34;;;;;;;0.00;0.00;;;1.50;99.90;;;;;;5034436;28;20600;-89
2023/03/27 00:33:00;;;;;;;0.20;0.20;;;1.50;99.90;;;;;;5052274;28;20461;-89
2023/03/27 00:35:28;;;;;;;0.00;0.00;;;1.50;99.90;;;;;;5052523;28;20044;-89
2023/03/27 00:37:54;;;;;;;0.00;0.00;;;2.20;99.90;;;;;;5051082;28;20049;-89
2023/03/27 00:40:21;;;;;;;0.00;0.00;;;1.40;99.90;;;;;;5052937;28;20052;-89
2023/03/27 00:42:49;;;;;;;0.00;0.00;;;1.40;99.90;;;;;;5051392;28;20130;-90
2023/03/27 00:45:17;;;;;;;0.05;0.05;;;1.60;14.30;;;;;;5052416;28;20584;-90
2023/03/27 00:47:45;;;;;;;0.00;0.00;;;1.50;99.90;;;;;;5052972;28;20052;-90
2023/03/27 00:50:17;;;;;;;0.00;0.00;;;2.40;99.90;;;;;;5053619;28;20045;-90
2023/03/27 00:52:47;;;;;;;0.00;0.00;;;1.20;1.00;;;;;;5051625;28;20086;-90
2023/03/27 00:55:16;;;;;;;0.00;0.00;;;1.00;44.80;;;;;;5053142;28;20116;-90
2023/03/27 00:57:43;;;;;;;0.08;0.08;;;1.00;99.90;;;;;;5054030;28;20041;-89
2023/03/27 01:00:15;;;;;;;0.00;0.00;;;0.70;99.90;;;;;;5052744;28;20070;-90
2023/03/27 01:02:45;;;;;;;0.00;0.00;;;0.60;73.10;;;;;;5051951;28;20044;-90
2023/03/27 01:05:11;;;;;;;0.00;0.00;;;0.40;1.00;;;;;;5052087;28;20083;-89
2023/03/27 01:07:39;;;;;;;0.00;0.00;;;0.40;99.90;;;;;;5051205;28;20503;-90
2023/03/27 01:10:07;;;;;;;0.13;0.13;;;0.30;1.00;;;;;;5052888;28;20074;-89
2023/03/27 01:13:11;;;;;;;0.00;0.00;;;0.30;99.90;;;;;;5051995;28;20029;-90
2023/03/27 01:16:00;;;;;;;0.85;0.85;;;0.40;99.90;;;;;;5053673;28;20045;-90
2023/03/27 01:18:47;;;;;;;0.03;0.03;;;0.30;99.90;;;;;;5048352;28;20112;-90
2023/03/27 01:21:37;;;;;;;0.10;0.10;;;0.10;99.90;;;;;;5052989;28;20064;-90
2023/03/27 01:24:29;;;;;;;0.00;0.00;;;0.00;82.60;;;;;;5053841;28;20056;-90
2023/03/27 01:27:04;;;;;;;0.10;0.10;;;0.00;99.90;;;;;;5051632;28;20079;-89
2023/03/27 01:29:47;;;;;;;0.00;0.00;;;0.10;99.90;;;;;;5052866;28;20079;-89
2023/03/27 01:32:53;;;;;;;0.03;0.03;;;0.00;1.00;;;;;;5051616;28;20049;-90
2023/03/27 01:35:31;;;;;;;0.20;0.20;;;0.10;99.90;;;;;;5053131;28;20060;-89
2023/03/27 01:38:31;;;;;;;0.00;0.00;;;0.10;99.90;;;;;;5051745;28;20052;-90
2023/03/27 01:41:26;;;;;;;0.00;0.00;;;0.20;1.00;;;;;;5052010;28;20065;-89
2023/03/27 01:44:04;;;;;;;0.00;0.00;;;0.30;1.00;;;;;;5052930;28;20071;-89
2023/03/27 01:46:40;;;;;;;0.00;0.00;;;0.30;99.90;;;;;;5052028;28;20052;-89
2023/03/27 01:49:15;;;;;;;0.30;0.30;;;0.20;99.90;;;;;;5051720;28;20128;-90
2023/03/27 01:51:45;;;;;;;0.20;0.20;;;0.20;99.90;;;;;;5053246;28;20414;-90
2023/03/27 01:54:20;;;;;;;0.00;0.00;;;0.20;99.90;;;;;;5035069;28;20393;-90
2023/03/27 01:56:53;;;;;;;1.38;1.00;;;0.10;99.90;;;;;;5051759;28;20049;-90
2023/03/27 01:59:22;;;;;;;0.00;0.00;;;0.10;98.70;;;;;;5051476;28;20388;-90
2023/03/27 02:02:13;;;;;;;0.00;0.00;;;0.00;99.90;;;;;;5052864;28;20049;-90
2023/03/27 02:04:50;;;;;;;0.00;0.00;;;-0.10;99.90;;;;;;5051374;28;20049;-90
2023/03/27 02:07:29;;;;;;;0.00;0.00;;;-0.20;38.50;;;;;;5053000;28;20049;-90
2023/03/27 02:10:00;;;;;;;0.28;0.28;;;-0.20;99.90;;;;;;5053129;28;20041;-91
2023/03/27 02:12:33;;;;;;;0.05;0.05;;;-0.20;99.90;;;;;;5034877;28;20049;-90
2023/03/27 02:15:14;;;;;;;0.00;0.00;;;-0.20;10.70;;;;;;5052527;28;20048;-90
2023/03/27 02:17:48;;;;;;;0.00;0.00;;;-0.20;1.00;;;;;;5051981;28;20590;-90
2023/03/27 02:20:16;;;;;;;0.00;0.00;;;-0.30;99.90;;;;;;5051994;28;20095;-90
2023/03/27 02:22:44;;;;;;;0.10;0.10;;;-0.40;99.90;;;;;;5052560;28;20061;-90
2023/03/27 02:25:19;;;;;;;0.00;0.00;;;-0.40;1.00;;;;;;5052849;28;20108;-91
2023/03/27 02:27:47;;;;;;;0.10;0.10;;;-0.40;99.90;;;;;;5051204;28;20084;-90
2023/03/27 02:30:30;;;;;;;0.00;0.00;;;-0.50;99.90;;;;;;5052687;28;20429;-91
2023/03/27 02:33:28;;;;;;;0.00;0.00;;;-0.40;99.90;;;;;;5053136;28;20041;-90
2023/03/27 02:36:15;;;;;;;0.00;0.00;;;-0.30;99.90;;;;;;5051481;28;20091;-90
2023/03/27 02:38:48;;;;;;;0.00;0.00;;;0.00;1.00;;;;;;5050907;28;20044;-90
2023/03/27 02:41:29;;;;;;;0.00;0.00;;;0.00;88.60;;;;;;5054154;28;20117;-90
2023/03/27 02:44:03;;;;;;;0.10;0.10;;;0.10;56.00;;;;;;5056241;28;20052;-90
2023/03/27 02:46:39;;;;;;;0.00;0.00;;;0.20;1.00;;;;;;5054829;28;20049;-90
2023/03/27 02:49:25;;;;;;;0.00;0.00;;;0.10;99.90;;;;;;5055814;28;20053;-89
2023/03/27 02:51:56;;;;;;;0.00;0.00;;;0.10;99.90;;;;;;5054752;28;20041;-89
2023/03/27 02:54:28;;;;;;;0.00;0.00;;;0.20;1.00;;;;;;5054525;28;20049;-89
2023/03/27 02:56:57;;;;;;;0.00;0.00;;;0.20;1.00;;;;;;5054284;28;20059;-89
2023/03/27 02:59:34;;;;;;;0.10;0.10;;;0.40;1.00;;;;;;5055932;28;20045;-89
2023/03/27 03:02:02;;;;;;;0.00;0.00;;;0.50;99.90;;;;;;5054371;28;20040;-90
2023/03/27 03:04:40;;;;;;;0.03;0.03;;;0.50;99.90;;;;;;5056119;28;20061;-89
2023/03/27 03:07:07;;;;;;;0.00;0.00;;;0.80;99.90;;;;;;5055757;28;20167;-89
2023/03/27 03:09:33;;;;;;;0.00;0.00;;;0.80;1.00;;;;;;5055749;28;20067;-90
2023/03/27 03:11:58;;;;;;;0.00;0.00;;;0.90;1.00;;;;;;5053827;28;20048;-89
2023/03/27 03:14:34;;;;;;;0.00;0.00;;;0.90;99.90;;;;;;5056113;28;20521;-90
2023/03/27 03:17:00;;;;;;;0.00;0.00;;;0.80;1.00;;;;;;5054632;28;20398;-90
2023/03/27 03:19:26;;;;;;;0.00;0.00;;;0.80;99.90;;;;;;5055947;28;20044;-90
2023/03/27 03:21:52;;;;;;;0.00;0.00;;;0.70;99.90;;;;;;5055911;28;20056;-90
2023/03/27 03:24:20;;;;;;;0.00;0.00;;;0.70;1.00;;;;;;5055815;28;20045;-90
2023/03/27 03:26:49;;;;;;;0.65;0.65;;;0.70;99.90;;;;;;5055574;28;20045;-90
2023/03/27 03:29:18;;;;;;;0.00;0.00;;;0.70;99.90;;;;;;5055310;28;20045;-90
2023/03/27 03:31:44;;;;;;;0.00;0.00;;;0.50;1.50;;;;;;5055693;28;20045;-90
2023/03/27 03:34:17;;;;;;;0.00;0.00;;;0.40;1.00;;;;;;5071138;28;20183;-90
2023/03/27 03:36:47;;;;;;;0.00;0.00;;;0.20;99.90;;;;;;5075124;28;20092;-90
2023/03/27 03:39:14;;;;;;;0.30;0.30;;;0.10;1.00;;;;;;5075523;28;20515;-89
2023/03/27 03:41:41;;;;;;;0.00;0.00;;;0.00;1.00;;;;;;5074542;28;20047;-89
2023/03/27 03:44:07;;;;;;;0.00;0.00;;;-0.10;99.90;;;;;;5074810;28;20056;-89
2023/03/27 03:46:32;;;;;;;0.00;0.00;;;-0.20;1.00;;;;;;5074644;28;20060;-89
2023/03/27 03:48:59;;;;;;;0.00;0.00;;;-0.30;99.90;;;;;;5072821;28;20414;-89
2023/03/27 03:51:25;;;;;;;0.10;0.10;;;-0.40;90.00;;;;;;5072825;28;20079;-90
2023/03/27 03:53:51;;;;;;;0.00;0.00;;;-0.50;1.00;;;;;;5072119;28;20052;-89
2023/03/27 03:56:17;;;;;;;0.00;0.00;;;0.70;1.00;;;;;;5072136;28;20040;-89
2023/03/27 03:58:43;;;;;;;0.03;0.03;;;-0.40;8.80;;;;;;5071995;28;20135;-90
2023/03/27 04:01:09;;;;;;;0.00;0.00;;;-0.30;1.00;;;;;;5072771;28;20075;-89
2023/03/27 04:03:35;;;;;;;0.00;0.00;;;-0.30;1.00;;;;;;5073545;28;20452;-89
2023/03/27 04:06:04;;;;;;;1.00;0.70;;;-0.20;1.00;;;;;;5062241;28;20045;-89
2023/03/27 04:08:30;;;;;;;0.00;0.00;;;-0.10;9.70;;;;;;5018496;28;20056;-88
2023/03/27 04:10:56;;;;;;;0.10;0.10;;;-0.20;77.30;;;;;;5055804;28;20049;-89
2023/03/27 04:13:23;;;;;;;1.13;0.68;;;-0.20;1.00;;;;;;5051538;28;20053;-89
2023/03/27 04:15:50;;;;;;;0.10;0.10;;;-0.40;99.90;;;;;;5071137;28;20098;-89
2023/03/27 04:18:18;;;;;;;0.00;0.00;;;-0.20;1.00;;;;;;5040852;28;20468;-89
2023/03/27 04:20:48;;;;;;;0.00;0.00;;;0.00;1.00;;;;;;5049081;28;20095;-89
2023/03/27 04:23:17;;;;;;;0.00;0.00;;;0.10;1.00;;;;;;5050655;28;20048;-88
2023/03/27 04:25:47;;;;;;;0.00;0.00;;;0.40;99.90;;;;;;5050343;28;20052;-88
2023/03/27 04:28:16;;;;;;;0.03;0.03;;;0.50;99.90;;;;;;5050613;28;20104;-88
2023/03/27 04:30:49;;;;;;;0.00;0.00;;;0.50;99.90;;;;;;5050074;28;20078;-89
2023/03/27 04:33:17;;;;;;;0.45;0.45;;;0.60;99.90;;;;;;5050419;28;20049;-89
2023/03/27 04:35:46;;;;;;;0.00;0.00;;;0.40;99.90;;;;;;5051475;28;20558;-89
2023/03/27 04:38:13;;;;;;;0.32;0.32;;;0.40;99.90;;;;;;5049763;28;20063;-89
2023/03/27 04:40:44;;;;;;;0.00;0.00;;;0.30;99.90;;;;;;5051362;28;20044;-90
2023/03/27 04:43:11;;;;;;;0.00;0.00;;;0.30;99.90;;;;;;5049327;28;20048;-89
2023/03/27 04:45:37;;;;;;;0.30;0.30;;;0.20;44.70;;;;;;5048157;28;20033;-89
2023/03/27 04:48:04;;;;;;;0.00;0.00;;;0.00;1.00;;;;;;5047818;28;20124;-89
2023/03/27 04:50:31;;;;;;;0.47;0.38;;;-0.10;1.00;;;;;;5049229;28;20087;-89
2023/03/27 04:53:00;;;;;;;0.00;0.00;;;-0.30;99.90;;;;;;5050393;28;20051;-89
2023/03/27 04:55:26;;;;;;;0.00;0.00;;;-0.40;99.90;;;;;;5047452;28;20049;-88
2023/03/27 04:57:55;;;;;;;0.00;0.00;;;-0.40;1.00;;;;;;5049006;28;20679;-88
2023/03/27 05:00:22;;;;;;;0.00;0.00;;;-0.40;1.00;;;;;;5046894;28;20151;-88
2023/03/27 05:02:51;;;;;;;0.28;0.28;;;-0.40;33.40;;;;;;5064324;28;20044;-88
2023/03/27 05:05:18;;;;;;;0.00;0.00;;;-0.30;28.10;;;;;;5068936;28;20052;-88
2023/03/27 05:07:48;;;;;;;0.25;0.25;;;-0.30;26.20;;;;;;5067647;28;20509;-89
2023/03/27 05:10:16;;;;;;;1.27;0.25;;;-0.30;1.00;;;;;;5068691;28;20048;-88
2023/03/27 05:12:46;;;;;;;1.25;1.10;;;-0.20;90.00;;;;;;5070482;28;20526;-89
2023/03/27 05:15:13;;;;;;;0.08;0.08;;;1.00;99.90;;;;;;5072474;28;20052;-89
2023/03/27 05:17:40;;;;;;;1.98;1.17;;;-0.20;99.90;;;;;;5072328;28;20044;-89
2023/03/27 05:20:10;;;;;;;0.03;0.03;;;0.00;99.90;;;;;;5072757;28;20560;-89
2023/03/27 05:22:37;;;;;;;0.08;0.08;;;0.10;99.90;;;;;;5070288;28;20037;-88
2023/03/27 05:25:03;;;;;;;0.57;0.55;;;0.40;99.90;;;;;;5071648;28;20124;-89
2023/03/27 05:27:28;;;;;;;0.00;0.00;;;0.70;83.00;;;;;;5072208;28;20056;-89
2023/03/27 05:29:56;;;;;;;0.05;0.05;;;1.00;99.90;;;;;;5071486;28;20044;-89
2023/03/27 05:32:22;;;;;;;0.00;0.00;;;1.10;99.90;;;;;;5069783;28;20084;-89
2023/03/27 05:34:49;;;;;;;0.00;0.00;;;1.20;99.90;;;;;;5071967;28;20094;-89
2023/03/27 05:37:18;;;;;;;0.00;0.00;;;1.20;1.00;;;;;;5069975;28;20097;-89
2023/03/27 05:39:46;;;;;;;0.00;0.00;;;1.10;99.90;;;;;;5073793;28;20087;-89
2023/03/27 05:42:13;;;;;;;0.00;0.00;;;1.10;99.90;;;;;;5066673;28;20049;-89
2023/03/27 05:44:39;;;;;;;0.00;0.00;;;1.10;99.90;;;;;;5065227;28;20521;-89
2023/03/27 05:47:05;;;;;;;0.10;0.10;;;1.10;1.00;;;;;;5063972;28;20048;-89
2023/03/27 05:49:32;;;;;;;0.00;0.00;;;1.20;4.60;;;;;;5063735;28;20506;-89
2023/03/27 05:51:58;;;;;;;0.00;0.00;;;1.30;99.90;;;;;;5065002;28;20045;-89
2023/03/27 05:54:24;;;;;;;0.00;0.00;;;1.30;99.90;;;;;;5062990;28;20109;-89
2023/03/27 05:56:50;;;;;;;0.00;0.00;;;1.40;1.00;;;;;;5046828;28;20070;-89
2023/03/27 05:59:16;;;;;;;0.17;0.17;;;1.50;90.80;;;;;;5065025;28;20055;-88
2023/03/27 06:01:41;;;;;;;0.00;0.00;;;1.60;96.10;;;;;;5063173;28;20041;-89
2023/03/27 06:04:07;;;;;;;0.00;0.00;;;1.50;99.90;;;;;;5065229;28;20036;-89
2023/03/27 06:06:34;;;;;;;0.00;0.00;;;1.60;99.90;;;;;;5065310;28;20040;-89
2023/03/27 06:09:00;;;;;;;0.00;0.00;;;1.60;99.90;;;;;;5063830;28;20137;-89
2023/03/27 06:11:26;;;;;;;0.00;0.00;;;1.60;99.90;;;;;;5062976;28;20060;-89
2023/03/27 06:13:52;;;;;;;0.00;0.00;;;1.70;1.00;;;;;;5064971;28;20059;-89
2023/03/27 06:16:21;;;;;;;0.10;0.10;;;1.70;39.30;;;;;;5067712;28;20348;-89
2023/03/27 06:18:48;;;;;;;0.17;0.17;;;1.70;77.20;;;;;;5066674;28;20053;-89
2023/03/27 06:21:14;;;;;;;0.00;0.00;;;1.70;99.90;;;;;;5067873;28;20084;-89
2023/03/27 06:23:41;;;;;;;0.73;0.73;;;2.00;1.00;;;;;;5066616;28;20099;-89
2023/03/27 06:26:07;;;;;;;51.25;1.95;;;2.60;99.90;;;;;;5068302;28;20048;-89
2023/03/27 06:28:33;;;;;;;0.00;0.00;;;3.30;99.90;;;;;;5066854;28;20052;-89
2023/03/27 06:30:58;;;;;;;0.00;0.00;;;3.90;96.80;;;;;;5068846;28;20151;-89
2023/03/27 06:33:26;;;;;;;0.00;0.00;;;5.50;99.90;;;;;;5066897;28;20123;-89
2023/03/27 06:35:58;;;;;;;0.00;0.00;;;5.20;58.20;;;;;;5067096;28;20600;-89
2023/03/27 06:38:25;;;;;;;0.00;0.00;;;5.40;8.60;;;;;;5067540;28;20036;-89
2023/03/27 06:40:51;;;;;;;0.00;0.00;;;5.10;1.00;;;;;;5050320;28;20044;-89
2023/03/27 06:43:21;;;;;;;0.00;0.00;;;4.60;1.00;;;;;;5066965;28;20482;-88
2023/03/27 06:45:48;;;;;;;0.20;0.20;;;4.00;1.00;;;;;;5068738;28;20457;-89
2023/03/27 06:48:15;;;;;;;0.95;0.47;;;3.70;76.00;;;;;;5067869;28;20502;-89
2023/03/27 06:50:42;;;;;;;0.00;0.00;;;3.50;99.90;;;;;;5067171;28;20624;-89
2023/03/27 06:53:09;;;;;;;0.00;0.00;;;3.40;99.90;;;;;;5067802;28;20413;-88
2023/03/27 06:55:35;;;;;;;2.25;1.65;;;3.20;99.90;;;;;;5066606;28;20072;-89
2023/03/27 06:58:04;;;;;;;0.00;0.00;;;3.20;99.90;;;;;;5066751;28;20056;-89
2023/03/27 07:00:34;;;;;;;0.00;0.00;;;3.20;99.90;;;;;;5067529;28;20076;-89
2023/03/27 07:03:05;;;;;;;0.00;0.00;;;3.20;1.00;;;;;;5068353;28;20043;-89
2023/03/27 07:05:35;;;;;;;0.00;0.00;;;3.30;1.00;;;;;;5067040;28;20055;-89
2023/03/27 07:08:06;;;;;;;0.00;0.00;;;3.40;99.90;;;;;;5068363;28;20095;-88
2023/03/27 07:10:33;;;;;;;0.00;0.00;;;3.50;99.90;;;;;;5066879;28;20072;-88
2023/03/27 07:12:58;;;;;;;0.00;0.00;;;3.60;1.00;;;;;;5066313;28;20044;-89
2023/03/27 07:15:25;;;;;;;0.00;0.00;;;3.70;99.90;;;;;;5067753;28;20401;-89
2023/03/27 07:17:59;;;;;;;0.00;0.00;;;3.80;99.90;;;;;;5067645;28;20071;-88
2023/03/27 07:20:26;;;;;;;0.00;0.00;;;3.80;99.90;;;;;;5067672;28;20448;-89
2023/03/27 07:22:54;;;;;;;0.40;0.30;;;3.80;99.90;;;;;;5066017;28;20528;-89
2023/03/27 07:25:22;;;;;;;0.20;0.20;;;3.80;99.90;;;;;;5068363;28;20082;-88
2023/03/27 07:27:48;;;;;;;0.00;0.00;;;4.70;99.90;;;;;;5068563;28;20078;-89
2023/03/27 07:30:14;;;;;;;0.00;0.00;;;4.40;99.90;;;;;;5067159;28;20044;-89
2023/03/27 07:32:41;;;;;;;0.82;0.82;;;4.00;99.90;;;;;;5067645;28;20124;-89
2023/03/27 07:35:08;;;;;;;0.28;0.28;;;4.20;99.90;;;;;;5067634;28;20494;-88
2023/03/27 07:37:36;;;;;;;0.00;0.00;;;4.30;93.00;;;;;;5065867;28;20060;-89
2023/03/27 07:40:05;;;;;;;0.00;0.00;;;4.40;99.90;;;;;;5066718;28;20071;-89
2023/03/27 07:42:31;;;;;;;0.00;0.00;;;4.60;40.60;;;;;;5065895;28;20056;-89
2023/03/27 07:44:57;;;;;;;0.00;0.00;;;4.70;21.80;;;;;;5065754;28;20061;-89
2023/03/27 07:47:22;;;;;;;0.00;0.00;;;4.90;1.00;;;;;;5065060;28;20080;-89
2023/03/27 07:49:48;;;;;;;0.00;0.00;;;5.10;99.90;;;;;;5065344;28;20405;-88
2023/03/27 07:52:14;;;;;;;0.05;0.05;;;5.30;99.90;;;;;;5066890;28;20098;-89
2023/03/27 07:54:39;;;;;;;0.00;0.00;;;5.60;99.90;;;;;;5065632;28;20044;-90
2023/03/27 07:57:05;;;;;;;0.20;0.20;;;6.10;99.90;;;;;;5064417;28;20060;-89
2023/03/27 07:59:31;;;;;;;0.00;0.00;;;6.30;99.90;;;;;;5064111;28;20053;-89
2023/03/27 08:01:57;;;;;;;0.00;0.00;;;6.30;99.90;;;;;;5066074;28;20044;-89
2023/03/27 08:04:22;;;;;;;0.00;0.00;;;6.30;99.90;;;;;;5064494;28;20044;-89
2023/03/27 08:06:50;;;;;;;0.20;0.20;;;6.20;99.90;;;;;;5066849;28;20138;-89
2023/03/27 08:09:16;;;;;;;2.50;1.45;;;6.10;99.90;;;;;;5064545;28;20091;-89
2023/03/27 08:11:43;;;;;;;0.00;0.00;;;5.90;99.90;;;;;;5065853;28;20056;-89
2023/03/27 08:14:08;;;;;;;0.00;0.00;;;5.70;99.90;;;;;;5066239;28;20048;-89
2023/03/27 08:16:35;;;;;;;0.00;0.00;;;5.50;99.90;;;;;;5065967;28;20551;-89
2023/03/27 08:19:05;;;;;;;0.98;0.95;;;5.30;99.90;;;;;;5064727;28;20123;-89
2023/03/27 08:21:33;;;;;;;0.00;0.00;;;5.00;99.90;;;;;;5066841;28;20506;-89
2023/03/27 08:24:01;;;;;;;0.00;0.00;;;4.90;99.90;;;;;;5065817;28;20048;-89
2023/03/27 08:26:27;;;;;;;0.00;0.00;;;4.70;99.90;;;;;;5064577;28;20545;-88
2023/03/27 08:28:54;;;;;;;1.38;0.75;;;4.60;99.90;;;;;;5066434;28;20080;-89
2023/03/27 08:31:21;;;;;;;0.00;0.00;;;4.60;99.90;;;;;;5063780;28;20055;-89
2023/03/27 08:33:47;;;;;;;0.00;0.00;;;4.40;99.90;;;;;;5065957;28;20045;-89
2023/03/27 08:36:13;;;;;;;0.22;0.22;;;4.30;99.90;;;;;;5064485;28;20051;-89
2023/03/27 08:38:42;;;;;;;1.27;1.02;;;4.40;99.90;;;;;;5063905;28;20611;-89
2023/03/27 08:41:37;;;;;;;0.00;0.00;;;4.50;99.90;;;;;;5064476;28;20485;-90
2023/03/27 08:44:06;;;;;;;0.00;0.00;;;4.70;99.90;;;;;;5064074;28;20052;-89
2023/03/27 08:46:37;;;;;;;0.00;0.00;;;5.50;99.90;;;;;;5064169;28;20059;-90
2023/03/27 08:49:19;;;;;;;1.38;0.75;;;7.80;94.50;;;;;;5064737;28;20044;-89
2023/03/27 08:52:18;;;;;;;0.20;0.20;;;7.60;48.20;;;;;;5064879;28;20079;-89
2023/03/27 08:54:50;;;;;;;0.17;0.17;;;8.30;17.10;;;;;;5065188;28;20438;-89
2023/03/27 08:57:23;;;;;;;0.00;0.00;;;8.70;1.00;;;;;;5065231;28;20174;-90
2023/03/27 08:59:56;;;;;;;0.00;0.00;;;8.90;1.00;;;;;;5065867;28;20097;-90
2023/03/27 09:02:27;;;;;;;0.00;0.00;;;8.80;1.00;;;;;;5063979;28;20048;-89
2023/03/27 09:05:05;;;;;;;0.98;0.85;;;9.70;1.00;;;;;;5065618;28;20048;-89
2023/03/27 09:07:41;;;;;;;0.70;0.65;;;8.70;1.00;;;;;;5063823;28;20561;-90
2023/03/27 09:10:20;;;;;;;;;;;9.10;1.00;;;;;;5063936;28;20063;-89
2023/03/27 09:13:06;;;;;;;0.45;0.25;;;9.50;1.00;;;;;;5063959;28;19924;-90
2023/03/27 09:15:39;;;;;;;0.00;0.00;;;10.10;1.00;;;;;;5046808;28;20044;-89
2023/03/27 09:18:26;;;;;;;0.00;0.00;;;10.70;1.00;;;;;;5065170;28;20055;-89
2023/03/27 09:20:58;;;;;;;0.20;0.20;;;10.70;1.00;;;;;;5064102;28;20075;-89
2023/03/27 09:23:26;;;;;;;0.00;0.00;;;10.60;1.00;;;;;;5063706;28;20048;-90
2023/03/27 09:26:11;;;;;;;0.03;0.03;;;10.80;1.00;;;;;;5064243;28;20366;-89
2023/03/27 09:29:00;;;;;;;0.00;0.00;;;9.90;1.00;;;;;;5064714;28;20421;-89
2023/03/27 09:31:33;;;;;;;0.00;0.00;;;10.10;1.00;;;;;;5064505;28;20057;-89
2023/03/27 09:34:15;;;;;;;0.00;0.00;;;9.70;1.00;;;;;;5064301;28;20063;-90
2023/03/27 09:36:43;;;;;;;0.52;0.30;;;10.10;1.00;;;;;;5063230;28;20082;-89
2023/03/27 09:39:16;;;;;;;0.40;0.30;;;9.30;1.00;;;;;;5064855;28;20048;-90
2023/03/27 09:41:51;;;;;;;1.55;0.73;;;11.30;1.00;;;;;;5064486;28;20067;-90
2023/03/27 09:44:25;;;;;;;1.17;0.70;;;10.80;1.00;;;;;;5063465;28;20053;-90
2023/03/27 09:47:15;;;;;;;1.25;0.85;;;10.80;1.00;;;;;;5064542;28;20048;-89
2023/03/27 09:49:52;;;;;;;0.00;0.00;;;9.60;1.00;;;;;;5064852;28;20195;-89
2023/03/27 09:52:37;;;;;;;0.00;0.00;;;9.70;1.00;;;;;;5067206;28;20044;-90
2023/03/27 09:55:30;;;;;;;0.00;0.00;;;9.00;1.00;;;;;;5069336;28;20043;-90
2023/03/27 09:58:13;;;;;;;0.00;0.00;;;8.80;1.00;;;;;;5067237;28;20513;-89
2023/03/27 10:00:39;;;;;;;0.00;0.00;;;9.40;1.00;;;;;;5068487;28;20383;-90
2023/03/27 10:03:12;;;;;;;0.00;0.00;;;9.50;1.00;;;;;;5068794;28;20398;-89
2023/03/27 10:05:38;;;;;;;0.52;0.52;;;8.60;1.00;;;;;;5066906;28;20056;-89
2023/03/27 10:08:24;;;;;;;0.00;0.00;;;8.50;1.00;;;;;;5067937;28;20044;-89
2023/03/27 10:10:58;;;;;;;0.00;0.00;;;8.50;1.00;;;;;;5066098;28;20044;-89
2023/03/27 10:13:27;;;;;;;0.00;0.00;;;7.90;1.00;;;;;;5066521;28;20071;-89
2023/03/27 10:16:03;;;;;;;0.10;0.10;;;7.70;1.00;;;;;;5066541;28;20049;-89
2023/03/27 10:18:32;;;;;;;0.00;0.00;;;8.80;1.00;;;;;;5066733;28;20577;-89
2023/03/27 10:21:05;;;;;;;10.13;0.52;;;9.70;1.00;;;;;;5066795;28;20040;-89
2023/03/27 10:23:44;;;;;;;1.80;0.57;;;9.00;1.00;;;;;;5067610;28;20052;-89
2023/03/27 10:26:12;;;;;;;0.00;0.00;;;9.90;1.00;;;;;;5049350;28;20061;-89
2023/03/27 10:28:45;;;;;;;0.00;0.00;;;9.70;1.00;;;;;;5066616;28;20079;-90
2023/03/27 10:31:36;;;;;;;0.00;0.00;;;7.80;1.00;;;;;;5067073;28;20056;-89
2023/03/27 10:34:25;;;;;;;0.38;0.22;;;7.50;1.00;;;;;;5050040;28;20091;-89
2023/03/27 10:36:53;;;;;;;0.00;0.00;;;7.60;1.00;;;;;;5067691;28;20936;-89
2023/03/27 10:39:20;;;;;;;0.43;0.30;;;8.70;1.00;;;;;;5066167;28;20131;-88
2023/03/27 10:41:47;;;;;;;0.00;0.00;;;8.50;1.00;;;;;;5067507;28;20052;-88
2023/03/27 10:44:19;;;;;;;0.05;0.05;;;8.10;1.00;;;;;;5066644;28;20088;-89
2023/03/27 10:46:45;;;;;;;0.70;0.47;;;9.50;1.00;;;;;;5064686;28;20060;-89
2023/03/27 10:49:27;;;;;;;0.00;0.00;;;8.40;1.00;;;;;;5064879;28;20052;-89
2023/03/27 10:52:08;;;;;;;0.32;0.28;;;8.50;1.00;;;;;;5047638;28;20128;-89
2023/03/27 10:54:37;;;;;;;0.00;0.00;;;8.60;1.00;;;;;;5066633;28;20456;-89
2023/03/27 10:57:08;;;;;;;0.00;0.00;;;8.70;1.00;;;;;;5064391;28;20056;-89
2023/03/27 10:59:49;;;;;;;0.00;0.00;;;9.10;1.00;;;;;;5067553;28;20063;-88
2023/03/27 11:02:36;;;;;;;0.98;0.63;;;9.20;1.00;;;;;;5066491;28;20773;-88
2023/03/27 11:05:06;;;;;;;0.00;0.00;;;9.10;1.00;;;;;;5066186;28;20109;-89
2023/03/27 11:07:39;;;;;;;0.10;0.10;;;9.20;1.00;;;;;;5065827;28;20070;-89
2023/03/27 11:10:44;;;;;;;0.00;0.00;;;9.10;1.00;;;;;;5064512;28;20041;-89
2023/03/27 11:13:22;;;;;;;0.00;0.00;;;8.60;99.90;;;;;;5064982;28;20049;-88
2023/03/27 11:16:02;;;;;;;0.00;0.00;;;8.60;99.90;;;;;;5064896;28;20056;-89
2023/03/27 11:18:53;;;;;;;0.00;0.00;;;8.40;99.90;;;;;;5064799;28;20155;-89
2023/03/27 11:21:41;;;;;;;0.00;0.00;;;8.80;99.90;;;;;;5064195;28;20071;-89
2023/03/27 11:24:32;;;;;;;0.00;0.00;;;8.70;1.00;;;;;;5065475;28;20049;-89
2023/03/27 11:27:07;;;;;;;0.00;0.00;;;9.20;1.00;;;;;;5064618;28;20083;-89
2023/03/27 11:29:38;;;;;;;0.00;0.00;;;9.50;1.00;;;;;;5065176;28;20060;-89
2023/03/27 11:32:38;;;;;;;1.65;0.88;;;11.30;1.00;;;;;;5065768;28;20044;-90
2023/03/27 11:35:16;;;;;;;0.08;0.08;;;10.70;1.00;;;;;;5066090;28;20053;-89
2023/03/27 11:37:58;;;;;;;0.88;0.40;;;10.90;1.00;;;;;;5065428;28;20491;-89
2023/03/27 11:40:39;;;;;;;0.43;0.10;;;10.90;1.00;;;;;;5065971;28;20053;-89
2023/03/27 11:43:08;;;;;;;0.00;0.00;;;10.20;1.00;;;;;;5026447;28;1073816;-88
2023/03/27 11:46:00;;;;;;;0.20;0.20;;;8.50;1.00;;;;;;5066491;28;20425;-89
2023/03/27 11:48:55;;;;;;;0.20;0.17;;;6.50;99.90;;;;;;5059384;28;20067;-88
2023/03/27 11:51:40;;;;;;;0.00;0.00;;;5.60;99.90;;;;;;5068660;28;20044;-88
2023/03/27 11:54:46;;;;;;;0.70;0.65;;;5.10;99.90;;;;;;5069996;28;20048;-88
2023/03/27 11:57:25;;;;;;;8.27;0.52;;;5.20;99.90;;;;;;5052855;28;20098;-89
2023/03/27 12:00:15;;;;;;;0.00;0.00;;;5.40;21.30;;;;;;5052856;28;20053;-89
2023/03/27 12:03:12;;;;;;;0.00;0.00;;;6.20;99.90;;;;;;5064092;28;20118;-89
2023/03/27 12:05:51;;;;;;;;;;;6.90;1.00;;;;;;5071990;28;20041;-90
2023/03/27 12:08:26;;;;;;;0.00;0.00;;;7.60;1.00;;;;;;5070809;28;19971;-89
2023/03/27 12:10:53;;;;;;;0.22;0.10;;;8.40;99.90;;;;;;5069996;28;20060;-89
2023/03/27 12:13:37;;;;;;;0.13;0.13;;;9.10;84.90;;;;;;5069447;28;20041;-89
2023/03/27 12:16:35;;;;;;;0.00;0.00;;;9.80;20.80;;;;;;5069363;28;20505;-89
2023/03/27 12:19:30;;;;;;;0.17;0.10;;;10.10;15.40;;;;;;5068934;28;20073;-89
2023/03/27 12:22:19;;;;;;;0.00;0.00;;;9.90;1.00;;;;;;5067382;28;20090;-89
2023/03/27 12:25:15;;;;;;;0.00;0.00;;;10.30;1.00;;;;;;5067619;28;20512;-89
2023/03/27 12:28:21;;;;;;;0.00;0.00;;;11.20;1.00;;;;;;5069868;28;20048;-89
2023/03/27 12:30:55;;;;;;;0.08;0.00;;;10.80;1.00;;;;;;5070010;28;20044;-88
2023/03/27 12:33:47;;;;;;;0.00;0.00;;;10.50;1.00;;;;;;5069082;28;20536;-89
2023/03/27 12:36:16;;;;;;;0.30;0.17;;;10.80;1.00;;;;;;5068927;28;20127;-88
2023/03/27 12:38:42;;;;;;;0.03;0.03;;;10.50;1.00;;;;;;5050409;28;20052;-89
2023/03/27 12:41:12;;;;;;;0.00;0.00;;;10.50;1.00;;;;;;5067476;28;20483;-89
2023/03/27 12:43:43;;;;;;;0.10;0.10;;;10.20;1.00;;;;;;5067773;28;20522;-89
2023/03/27 12:46:09;;;;;;;0.00;0.00;;;9.80;1.00;;;;;;5066984;28;20123;-89
2023/03/27 12:49:12;;;;;;;0.55;0.47;;;9.00;99.90;;;;;;5063294;28;20044;-88
2023/03/27 12:51:53;;;;;;;0.00;0.00;;;8.60;99.90;;;;;;5065141;28;20098;-90
2023/03/27 12:54:18;;;;;;;0.00;0.00;;;9.10;99.90;;;;;;5063795;28;20091;-89
2023/03/27 12:56:56;;;;;;;0.30;0.28;;;8.90;99.90;;;;;;5064217;28;20048;-88
2023/03/27 12:59:26;;;;;;;0.17;0.17;;;9.80;99.90;;;;;;5065168;28;20486;-88
2023/03/27 13:02:02;;;;;;;0.00;0.00;;;8.60;99.90;;;;;;5065703;28;20454;-88
2023/03/27 13:04:38;;;;;;;0.00;0.00;;;8.20;99.90;;;;;;5063578;28;20132;-88
2023/03/27 13:07:30;;;;;;;;;;;7.90;99.90;;;;;;5064254;28;20109;-89
2023/03/27 13:09:56;;;;;;;0.00;0.00;;;8.30;1.00;;;;;;5047995;28;20299;-89
2023/03/27 13:12:50;;;;;;;0.52;0.52;;;8.80;1.00;;;;;;5065223;28;20062;-88
2023/03/27 13:15:15;;;;;;;0.00;0.00;;;9.20;99.90;;;;;;5065443;28;20056;-89
2023/03/27 13:18:24;;;;;;;1.45;0.63;;;9.40;1.00;;;;;;5046540;28;20135;-89
2023/03/27 13:20:56;;;;;;;0.00;0.00;;;9.40;1.00;;;;;;5059458;28;20131;-88
2023/03/27 13:23:39;;;;;;;0.00;0.00;;;9.40;1.00;;;;;;5062892;28;20474;-89
2023/03/27 13:26:20;;;;;;;0.00;0.00;;;9.60;1.00;;;;;;5064534;28;20097;-89
2023/03/27 13:28:51;;;;;;;1.08;0.55;;;10.60;1.00;;;;;;5064610;28;20048;-89
2023/03/27 13:31:42;;;;;;;0.85;0.30;;;11.00;1.00;;;;;;5046252;28;20048;-89